Easton, New Hampshire
Current Conditions -  °F | °C
As of 5:15 PM on Wednesday 28 Jan 2015 (Local Time) from K1P1 Reporting Station
Clear Clear  
Wind Chill:   Ceiling: Unl
Heat Index: 19°   Visibility: 10mi
Dew Point:   Wind: 16mph
Humidity: 62%   Direction: 280°W
Pressure: 30.08"   Gusts: 24mph
Location:  44.1173°N, 71.8999°W
Report Text: K1P1 282215Z AUTO 28014G21KT 10SM CLR M07/M14 A3008 RMK AO2 T10751136
Loading
Personal Weather Stations






























Interactive Weather Map New forecast layout! Learn more

10-Day Weather Forecast

Advertisements
Track Severe Weather on mobile